Time;durP1;ratioP1;P1;durP2;ratioP2;P2;SDS_P1;SDS_P2;PMS_P1;PMS_P2;Temp;Humidity;BMP_temperature;BMP_pressure;BME280_temperature;BME280_humidity;BME280_pressure;Samples;Min_cycle;Max_cycle;Signal;HPM_P1;HPM_P2
2021/11/29 00:01:35;;;;;;;12.40;5.80;;;2.30;99.90;;;3.00;100.00;96640.97;5033478;28;20942;-79
2021/11/29 00:04:06;;;;;;;7.80;5.47;;;2.40;99.90;;;2.97;100.00;96629.22;5027314;28;20449;-79
2021/11/29 00:06:35;;;;;;;10.50;5.67;;;2.30;99.90;;;2.93;100.00;96634.91;5038819;28;20461;-79
2021/11/29 00:09:04;;;;;;;10.40;5.83;;;2.20;99.90;;;2.95;100.00;96640.72;5030260;28;21029;-79
2021/11/29 00:11:35;;;;;;;9.33;5.67;;;2.20;99.90;;;2.96;100.00;96639.72;5034407;28;20457;-79
2021/11/29 00:14:04;;;;;;;9.10;5.70;;;2.20;99.90;;;2.94;100.00;96641.69;5031416;28;20524;-79
2021/11/29 00:16:33;;;;;;;8.40;4.97;;;2.20;99.90;;;2.93;100.00;96645.22;5031603;28;21037;-80
2021/11/29 00:19:04;;;;;;;7.60;5.10;;;2.20;99.90;;;2.91;100.00;96652.34;5032805;28;20493;-79
2021/11/29 00:21:33;;;;;;;8.20;5.77;;;2.20;99.90;;;2.91;100.00;96653.16;5026052;28;20826;-79
2021/11/29 00:24:01;;;;;;;11.50;6.00;;;2.20;99.90;;;2.94;100.00;96654.59;5034185;28;20982;-79
2021/11/29 00:26:30;;;;;;;13.17;5.63;;;2.30;99.90;;;2.95;100.00;96661.38;5027897;28;20516;-79
2021/11/29 00:29:00;;;;;;;6.67;4.80;;;2.30;99.90;;;2.92;100.00;96664.28;5034204;28;20842;-79
2021/11/29 00:31:29;;;;;;;6.33;4.83;;;2.30;99.90;;;2.95;100.00;96663.94;5027111;28;20462;-80
2021/11/29 00:33:58;;;;;;;14.97;5.80;;;2.30;99.90;;;2.95;100.00;96662.16;5019658;28;20486;-79
2021/11/29 00:36:26;;;;;;;10.10;4.63;;;2.30;99.90;;;2.95;100.00;96679.44;5024920;28;20889;-79
2021/11/29 00:38:55;;;;;;;8.43;4.77;;;2.30;99.90;;;3.00;100.00;96674.53;5019874;28;20516;-81
2021/11/29 00:41:24;;;;;;;8.60;5.60;;;2.40;99.90;;;2.97;100.00;96672.31;5029766;28;20454;-80
2021/11/29 00:43:52;;;;;;;6.80;4.77;;;2.40;99.90;;;2.96;100.00;96679.25;5024124;28;20599;-79
2021/11/29 00:46:22;;;;;;;9.73;5.50;;;2.40;99.90;;;2.98;100.00;96674.72;5026835;28;20497;-80
2021/11/29 00:48:51;;;;;;;7.67;4.97;;;2.40;99.90;;;3.01;100.00;96683.91;5025665;28;20462;-80
2021/11/29 00:51:20;;;;;;;8.57;4.97;;;2.30;99.90;;;2.98;100.00;96685.06;5029512;28;20540;-79
2021/11/29 00:53:48;;;;;;;5.63;4.77;;;2.40;99.90;;;3.00;100.00;96685.66;5031102;28;20805;-80
2021/11/29 00:56:18;;;;;;;8.07;4.77;;;2.30;99.90;;;2.98;100.00;96692.00;5030768;28;20555;-79
2021/11/29 00:58:46;;;;;;;9.63;4.90;;;2.30;99.90;;;2.97;100.00;96698.94;5025705;28;20462;-79
2021/11/29 01:01:15;;;;;;;6.60;4.70;;;2.30;99.90;;;2.97;100.00;96708.44;5020235;28;20463;-79
2021/11/29 01:03:45;;;;;;;6.50;4.50;;;2.40;99.90;;;2.92;100.00;96713.31;5030008;28;21030;-79
2021/11/29 01:06:14;;;;;;;5.37;3.93;;;2.30;99.90;;;2.93;100.00;96717.50;5027146;28;20481;-79
2021/11/29 01:08:44;;;;;;;6.90;4.87;;;2.30;99.90;;;2.90;100.00;96723.81;5019625;28;20467;-80
2021/11/29 01:11:13;;;;;;;9.33;3.47;;;2.20;99.90;;;2.86;100.00;96732.06;5021081;28;20462;-79
2021/11/29 01:13:42;;;;;;;5.87;4.33;;;2.30;99.90;;;2.85;100.00;96730.47;5026918;28;20470;-79
2021/11/29 01:16:11;;;;;;;7.50;4.17;;;2.10;99.90;;;2.84;100.00;96729.69;5029104;28;20511;-80
2021/11/29 01:18:40;;;;;;;5.80;3.97;;;2.10;99.90;;;2.78;100.00;96739.84;5027029;28;20818;-80
2021/11/29 01:21:10;;;;;;;5.37;3.80;;;2.00;99.90;;;2.81;100.00;96744.72;5026658;28;20522;-79
2021/11/29 01:23:38;;;;;;;4.50;3.60;;;2.00;99.90;;;2.76;100.00;96749.56;5028911;28;21056;-79
2021/11/29 01:26:10;;;;;;;7.03;4.23;;;2.00;99.90;;;2.74;100.00;96751.53;5025374;28;20545;-80
2021/11/29 01:28:39;;;;;;;5.17;3.77;;;2.00;99.90;;;2.74;100.00;96759.25;5022632;28;20498;-79
2021/11/29 01:31:09;;;;;;;5.43;4.00;;;2.00;99.90;;;2.73;100.00;96757.66;5019244;28;20495;-80
2021/11/29 01:33:38;;;;;;;8.23;3.77;;;2.00;99.90;;;2.69;100.00;96756.38;5028813;28;20477;-80
2021/11/29 01:36:08;;;;;;;7.00;4.20;;;1.90;99.90;;;2.70;100.00;96758.81;5034148;28;20938;-79
2021/11/29 01:38:39;;;;;;;7.07;4.00;;;1.90;99.90;;;2.73;100.00;96768.78;5021787;28;20457;-79
2021/11/29 01:41:08;;;;;;;6.50;4.30;;;1.90;99.90;;;2.72;100.00;96766.34;5028774;28;20738;-80
2021/11/29 01:43:37;;;;;;;6.30;3.73;;;2.00;99.90;;;2.75;100.00;96774.56;5029163;28;20454;-79
2021/11/29 01:46:06;;;;;;;8.43;4.10;;;2.00;99.90;;;2.76;100.00;96773.59;5032923;28;21025;-79
2021/11/29 01:48:36;;;;;;;5.43;3.13;;;2.00;99.90;;;2.75;100.00;96779.72;5030496;28;20501;-80
2021/11/29 01:51:05;;;;;;;8.00;4.13;;;2.00;99.90;;;2.75;100.00;96779.72;5028922;28;20474;-80
2021/11/29 01:53:34;;;;;;;5.63;3.27;;;2.10;99.90;;;2.74;100.00;96779.91;5030177;28;20871;-80
2021/11/29 01:56:05;;;;;;;3.60;3.10;;;2.10;99.90;;;2.73;100.00;96779.09;5028967;28;20524;-80
2021/11/29 01:58:38;;;;;;;4.33;2.97;;;2.00;99.90;;;2.69;100.00;96777.03;5028785;28;20479;-79
2021/11/29 02:01:11;;;;;;;4.97;2.80;;;2.10;99.90;;;2.68;100.00;96783.13;5032156;28;20504;-80
2021/11/29 02:03:41;;;;;;;4.60;3.47;;;2.00;99.90;;;2.64;100.00;96779.31;5023827;28;20476;-80
2021/11/29 02:06:10;;;;;;;13.40;3.00;;;1.90;99.90;;;2.60;100.00;96784.00;5026005;28;20493;-80
2021/11/29 02:08:39;;;;;;;5.20;3.03;;;1.90;99.90;;;2.62;100.00;96778.66;5026141;28;20449;-79
2021/11/29 02:11:09;;;;;;;6.03;2.80;;;1.90;99.90;;;2.58;100.00;96769.66;5028005;28;20458;-80
2021/11/29 02:13:38;;;;;;;4.23;2.50;;;2.00;99.90;;;2.51;100.00;96775.50;5027941;28;20453;-80
2021/11/29 02:16:09;;;;;;;3.67;2.83;;;1.80;99.90;;;2.52;100.00;96777.09;5025223;28;20458;-79
2021/11/29 02:18:40;;;;;;;3.33;2.67;;;1.90;99.90;;;2.53;100.00;96783.84;5032049;28;21008;-80
2021/11/29 02:21:14;;;;;;;4.37;2.40;;;1.80;99.90;;;2.51;100.00;96790.16;5032969;28;20442;-80
2021/11/29 02:23:46;;;;;;;4.53;2.70;;;1.90;99.90;;;2.46;100.00;96788.06;5032236;28;20482;-80
2021/11/29 02:26:15;;;;;;;5.70;2.23;;;1.80;99.90;;;2.41;100.00;96794.72;5029269;28;20521;-79
2021/11/29 02:28:51;;;;;;;5.93;2.87;;;1.70;99.90;;;2.36;100.00;96795.22;5030589;28;20450;-80
2021/11/29 02:31:27;;;;;;;6.03;3.27;;;1.70;99.90;;;2.31;100.00;96797.50;5036726;28;21042;-79
2021/11/29 02:33:56;;;;;;;3.40;2.60;;;1.70;99.90;;;2.35;100.00;96803.13;5032135;28;20459;-80
2021/11/29 02:36:26;;;;;;;6.03;2.90;;;1.70;99.90;;;2.30;100.00;96802.81;5031599;28;20526;-79
2021/11/29 02:38:55;;;;;;;5.57;3.40;;;1.60;99.90;;;2.27;100.00;96803.16;5029258;28;20509;-80
2021/11/29 02:41:23;;;;;;;8.33;2.70;;;1.70;99.90;;;2.28;100.00;96803.00;5036011;28;20439;-80
2021/11/29 02:43:52;;;;;;;4.63;2.90;;;1.60;99.90;;;2.29;100.00;96807.16;5026445;28;20461;-80
2021/11/29 02:46:20;;;;;;;3.93;2.73;;;1.60;99.90;;;2.24;100.00;96804.28;5027635;28;20501;-79
2021/11/29 02:48:52;;;;;;;4.00;2.70;;;1.50;99.90;;;2.18;100.00;96810.13;5022551;28;20461;-80
2021/11/29 02:51:30;;;;;;;6.53;2.50;;;1.40;99.90;;;2.14;100.00;96814.00;5030874;28;20489;-79
2021/11/29 02:54:06;;;;;;;2.80;2.60;;;1.40;99.90;;;2.02;100.00;96815.28;5037198;28;20449;-80
2021/11/29 02:56:37;;;;;;;4.83;2.50;;;1.20;99.90;;;2.00;100.00;96810.31;5027875;28;21069;-79
2021/11/29 02:59:09;;;;;;;4.30;2.37;;;1.20;99.90;;;1.99;100.00;96820.78;5034456;28;20463;-80
2021/11/29 03:01:38;;;;;;;3.83;2.53;;;1.20;99.90;;;1.95;100.00;96825.44;5023964;28;20466;-79
2021/11/29 03:04:07;;;;;;;4.00;2.13;;;1.20;99.90;;;1.94;100.00;96823.06;5027976;28;20475;-79
2021/11/29 03:06:38;;;;;;;4.10;2.60;;;1.20;99.90;;;1.93;100.00;96831.75;5034696;28;20483;-80
2021/11/29 03:09:07;;;;;;;3.33;2.17;;;1.30;99.90;;;1.90;100.00;96832.06;5020525;28;20538;-79
2021/11/29 03:11:37;;;;;;;4.63;2.30;;;1.20;99.90;;;1.88;100.00;96828.84;5023976;28;20471;-80
2021/11/29 03:14:06;;;;;;;3.27;2.40;;;1.00;99.90;;;1.80;100.00;96839.16;5026232;28;20532;-80
2021/11/29 03:16:35;;;;;;;5.60;2.57;;;1.10;99.90;;;1.81;100.00;96833.84;5027025;28;20549;-80
2021/11/29 03:19:04;;;;;;;4.73;3.07;;;1.10;99.90;;;1.80;100.00;96841.75;5032286;28;20450;-80
2021/11/29 03:21:36;;;;;;;4.00;2.53;;;1.30;99.90;;;1.72;100.00;96834.00;5036624;28;20456;-79
2021/11/29 03:24:09;;;;;;;3.50;2.50;;;1.10;99.90;;;1.73;100.00;96836.44;5030570;28;20492;-79
2021/11/29 03:26:41;;;;;;;4.17;2.47;;;1.20;99.90;;;1.72;100.00;96846.91;5031157;28;20551;-79
2021/11/29 03:29:14;;;;;;;4.60;3.10;;;1.10;99.90;;;1.67;100.00;96839.63;5030986;28;20441;-80
2021/11/29 03:31:44;;;;;;;6.70;2.97;;;1.00;99.90;;;1.67;100.00;96846.56;5024173;28;20832;-79
2021/11/29 03:34:16;;;;;;;7.90;2.47;;;1.00;99.90;;;1.65;100.00;96838.19;5032160;28;20951;-79
2021/11/29 03:36:47;;;;;;;4.00;2.37;;;1.00;99.90;;;1.63;100.00;96846.09;5028898;28;20457;-79
2021/11/29 03:39:20;;;;;;;4.40;2.83;;;0.90;99.90;;;1.62;100.00;96843.69;5036734;28;21004;-79
2021/11/29 03:41:52;;;;;;;3.27;2.50;;;1.00;99.90;;;1.61;100.00;96853.16;5032862;28;20989;-79
2021/11/29 03:44:21;;;;;;;6.40;2.90;;;0.90;99.90;;;1.58;100.00;96852.69;5025779;28;20462;-79
2021/11/29 03:46:53;;;;;;;4.50;2.50;;;0.80;99.90;;;1.53;100.00;96851.41;5026480;28;20561;-79
2021/11/29 03:49:24;;;;;;;8.30;2.60;;;0.80;99.90;;;1.52;100.00;96860.09;5022613;28;20470;-79
2021/11/29 03:51:52;;;;;;;5.67;2.63;;;0.80;99.90;;;1.51;100.00;96858.47;5030864;28;20435;-80
2021/11/29 03:54:23;;;;;;;4.93;2.80;;;0.90;99.90;;;1.50;100.00;96859.44;5036384;28;20478;-79
2021/11/29 03:56:52;;;;;;;4.27;2.80;;;0.80;99.90;;;1.47;100.00;96867.50;5034615;28;20898;-80
2021/11/29 03:59:21;;;;;;;4.23;2.53;;;0.70;99.90;;;1.45;100.00;96864.28;5035233;28;20489;-80
2021/11/29 04:01:50;;;;;;;4.10;2.50;;;0.70;99.90;;;1.43;100.00;96865.38;5027936;28;20465;-80
2021/11/29 04:04:19;;;;;;;4.83;2.67;;;0.70;99.90;;;1.43;100.00;96875.69;5028250;28;20461;-79
2021/11/29 04:06:47;;;;;;;3.80;2.53;;;0.70;99.90;;;1.40;100.00;96876.81;5032584;28;20493;-79
2021/11/29 04:09:16;;;;;;;6.93;2.77;;;0.70;99.90;;;1.37;100.00;96882.28;5029963;28;20456;-79
2021/11/29 04:11:46;;;;;;;5.73;3.07;;;0.70;99.90;;;1.35;100.00;96884.22;5029512;28;20478;-80
2021/11/29 04:14:14;;;;;;;4.13;2.90;;;0.60;99.90;;;1.33;100.00;96881.00;5030013;28;20518;-80
2021/11/29 04:16:43;;;;;;;4.90;2.70;;;0.50;99.90;;;1.32;100.00;96887.09;5027027;28;20916;-79
2021/11/29 04:19:11;;;;;;;7.10;2.60;;;0.40;99.90;;;1.30;100.00;96886.47;5027713;28;20535;-80
2021/11/29 04:21:40;;;;;;;3.13;2.50;;;0.40;99.90;;;1.29;100.00;96895.13;5039072;28;20998;-79
2021/11/29 04:24:10;;;;;;;2.33;2.13;;;0.40;99.90;;;1.26;100.00;96898.03;5033614;28;20905;-79
2021/11/29 04:26:40;;;;;;;5.47;2.87;;;0.40;99.90;;;1.22;100.00;96904.44;5025220;28;20578;-79
2021/11/29 04:29:18;;;;;;;4.00;2.40;;;0.50;99.90;;;1.22;100.00;96912.19;5032086;28;20468;-80
2021/11/29 04:31:48;;;;;;;8.50;2.17;;;0.40;99.90;;;1.19;100.00;96912.50;5028121;28;20469;-79
2021/11/29 04:34:17;;;;;;;18.20;9.03;;;0.40;99.90;;;1.17;100.00;96911.84;5026022;28;20940;-80
2021/11/29 04:36:45;;;;;;;7.90;3.57;;;0.40;99.90;;;1.16;100.00;96910.22;5025911;28;20461;-80
2021/11/29 04:39:16;;;;;;;8.20;2.87;;;0.40;99.90;;;1.14;100.00;96921.66;5028014;28;20459;-79
2021/11/29 04:41:46;;;;;;;5.70;3.50;;;0.50;99.90;;;1.12;100.00;96918.41;5025036;28;20458;-79
2021/11/29 04:44:17;;;;;;;4.50;2.40;;;0.40;99.90;;;1.11;100.00;96927.91;5036332;28;20461;-79
2021/11/29 04:46:46;;;;;;;2.40;2.10;;;0.40;99.90;;;1.09;100.00;96926.44;5026867;28;20494;-79
2021/11/29 04:49:15;;;;;;;82.57;29.07;;;0.30;99.90;;;1.06;100.00;96919.84;5028044;28;21991;-79
2021/11/29 04:51:43;;;;;;;13.50;5.33;;;0.40;99.90;;;1.05;100.00;96932.88;5031364;28;20492;-79
2021/11/29 04:54:12;;;;;;;4.57;2.80;;;0.30;99.90;;;1.03;100.00;96935.59;5033946;28;20455;-80
2021/11/29 04:56:41;;;;;;;7.50;2.83;;;0.30;99.90;;;0.98;100.00;96936.06;5036922;28;20537;-79
2021/11/29 04:59:10;;;;;;;5.00;2.67;;;0.30;99.90;;;0.96;100.00;96940.56;5038551;28;20782;-79
2021/11/29 05:01:41;;;;;;;4.40;3.37;;;0.30;99.90;;;0.97;100.00;96941.38;5040308;28;21050;-79
2021/11/29 05:04:10;;;;;;;3.80;2.70;;;0.20;99.90;;;0.96;100.00;96939.75;5036130;28;21227;-79
2021/11/29 05:06:39;;;;;;;6.30;3.20;;;0.20;99.90;;;0.95;100.00;96944.09;5033916;28;20948;-79
2021/11/29 05:09:09;;;;;;;6.20;2.90;;;0.20;99.90;;;0.90;100.00;96951.47;5030442;28;21015;-79
2021/11/29 05:11:39;;;;;;;3.93;2.60;;;0.10;99.90;;;0.90;100.00;96958.41;5029673;28;20834;-79
2021/11/29 05:14:08;;;;;;;11.03;2.70;;;0.10;99.90;;;0.89;100.00;96960.16;5030110;28;20483;-79
2021/11/29 05:16:38;;;;;;;5.83;3.27;;;0.10;99.90;;;0.88;100.00;96968.03;5028635;28;20509;-79
2021/11/29 05:19:09;;;;;;;6.27;2.90;;;0.10;99.90;;;0.86;100.00;96969.94;5033567;28;20812;-79
2021/11/29 05:21:38;;;;;;;8.03;3.30;;;0.10;99.90;;;0.85;100.00;96973.47;5020901;28;20471;-80
2021/11/29 05:24:07;;;;;;;6.33;4.00;;;0.10;99.90;;;0.82;100.00;96990.03;5021234;28;20531;-80
2021/11/29 05:26:35;;;;;;;6.77;4.10;;;0.10;99.90;;;0.79;100.00;96990.34;5025102;28;20515;-80
2021/11/29 05:29:04;;;;;;;8.23;2.83;;;0.20;99.90;;;0.79;100.00;96984.38;5029250;28;20493;-79
2021/11/29 05:31:32;;;;;;;4.90;3.00;;;0.20;99.90;;;0.75;100.00;96989.03;5032699;28;20537;-79
2021/11/29 05:34:02;;;;;;;11.60;3.70;;;0.20;99.90;;;0.78;100.00;96988.72;5029456;28;20460;-79
2021/11/29 05:36:32;;;;;;;5.63;3.20;;;0.10;99.90;;;0.77;100.00;96988.84;5033883;28;21136;-79
2021/11/29 05:39:00;;;;;;;7.70;3.20;;;0.10;99.90;;;0.77;100.00;97002.53;5027360;28;20871;-78
2021/11/29 05:41:29;;;;;;;5.37;2.73;;;0.00;99.90;;;0.79;100.00;97010.09;5031450;28;20487;-77
2021/11/29 05:43:59;;;;;;;5.00;3.27;;;0.00;99.90;;;0.77;100.00;97012.00;5039017;28;20442;-78
2021/11/29 05:46:28;;;;;;;6.03;3.60;;;0.20;99.90;;;0.79;100.00;97020.41;5030382;28;20452;-77
2021/11/29 05:48:57;;;;;;;3.67;3.07;;;0.10;99.90;;;0.78;100.00;97024.72;5030583;28;20494;-78
2021/11/29 05:51:26;;;;;;;10.37;3.77;;;0.10;99.90;;;0.77;100.00;97028.25;5030292;28;20444;-78
2021/11/29 05:53:56;;;;;;;9.80;4.80;;;0.00;99.90;;;0.76;100.00;97033.56;5034512;28;20486;-77
2021/11/29 05:56:26;;;;;;;202.20;84.90;;;0.00;99.90;;;0.77;100.00;97032.59;5038582;28;20471;-77
2021/11/29 05:58:54;;;;;;;8.50;4.10;;;0.00;99.90;;;0.77;100.00;97032.59;5038118;28;20797;-78
2021/11/29 06:01:23;;;;;;;12.00;3.73;;;0.10;99.90;;;0.75;100.00;97035.31;5030373;28;20469;-78
2021/11/29 06:03:52;;;;;;;4.23;3.70;;;0.00;99.90;;;0.76;100.00;97036.13;5030912;28;20467;-78
2021/11/29 06:06:21;;;;;;;5.07;3.60;;;0.10;99.90;;;0.73;100.00;97039.03;5034312;28;20840;-78
2021/11/29 06:08:49;;;;;;;6.00;3.33;;;0.10;99.90;;;0.70;100.00;97042.69;5039717;28;20978;-78
2021/11/29 06:11:19;;;;;;;5.73;3.60;;;0.00;99.90;;;0.69;100.00;97048.00;5035345;28;20442;-78
2021/11/29 06:13:48;;;;;;;8.00;4.70;;;0.00;99.90;;;0.68;100.00;97060.03;5045283;28;20818;-78
2021/11/29 06:16:17;;;;;;;11.23;4.03;;;-0.10;99.90;;;0.67;100.00;97057.59;5041807;28;20449;-75
2021/11/29 06:18:45;;;;;;;5.57;4.23;;;-0.10;99.90;;;0.68;100.00;97059.22;5032814;28;20484;-78
2021/11/29 06:21:14;;;;;;;11.00;4.40;;;-0.10;99.90;;;0.62;100.00;97058.06;5034899;28;20450;-78
2021/11/29 06:23:42;;;;;;;4.67;3.77;;;-0.20;99.90;;;0.63;100.00;97064.00;5033811;28;20654;-78
2021/11/29 06:26:11;;;;;;;7.53;5.07;;;-0.20;99.90;;;0.63;100.00;97066.56;5033285;28;20817;-77
2021/11/29 06:28:41;;;;;;;8.63;4.47;;;-0.10;99.90;;;0.62;100.00;97065.78;5036419;28;20538;-78
2021/11/29 06:31:10;;;;;;;6.70;4.43;;;0.00;99.90;;;0.63;100.00;97071.72;5033034;28;20499;-78
2021/11/29 06:33:38;;;;;;;6.20;4.00;;;0.00;99.90;;;0.67;100.00;97075.59;5035121;28;20450;-78
2021/11/29 06:36:08;;;;;;;10.53;4.20;;;0.00;99.90;;;0.66;100.00;97074.00;5033321;28;20450;-77
2021/11/29 06:38:38;;;;;;;7.93;5.00;;;-0.10;99.90;;;0.67;100.00;97075.59;5033885;28;20444;-78
2021/11/29 06:41:07;;;;;;;8.43;5.40;;;-0.10;99.90;;;0.65;100.00;97088.63;5035125;28;20469;-78
2021/11/29 06:43:35;;;;;;;6.17;4.00;;;-0.10;99.90;;;0.62;100.00;97093.25;5029399;28;20523;-77
2021/11/29 06:46:05;;;;;;;6.87;4.57;;;-0.20;99.90;;;0.60;100.00;97093.41;5034570;28;20456;-78
2021/11/29 06:48:35;;;;;;;6.40;4.60;;;-0.20;99.90;;;0.60;100.00;97092.59;5032821;28;20923;-77
2021/11/29 06:51:03;;;;;;;7.10;5.03;;;-0.20;99.90;;;0.62;100.00;97103.56;5034562;28;20497;-78
2021/11/29 06:53:33;;;;;;;8.43;4.37;;;-0.10;99.90;;;0.67;100.00;97109.03;5028408;28;20807;-78
2021/11/29 06:56:04;;;;;;;9.57;5.17;;;0.00;99.90;;;0.70;100.00;97106.16;5035704;28;20484;-78
2021/11/29 06:58:35;;;;;;;4.77;4.00;;;0.10;99.90;;;0.71;100.00;97112.94;5032168;28;20450;-78
2021/11/29 07:01:06;;;;;;;6.10;4.50;;;0.20;99.90;;;0.73;100.00;97119.53;5030761;28;20494;-78
2021/11/29 07:03:35;;;;;;;6.43;3.60;;;0.20;99.90;;;0.80;100.00;97125.72;5032238;28;20440;-78
2021/11/29 07:06:05;;;;;;;6.73;4.20;;;0.20;99.90;;;0.84;100.00;97121.88;5033745;28;20503;-78
2021/11/29 07:08:34;;;;;;;5.60;4.00;;;0.30;99.90;;;0.83;100.00;97124.63;5024738;28;20486;-78
2021/11/29 07:11:03;;;;;;;4.90;3.87;;;0.20;99.90;;;0.84;100.00;97126.22;5031350;28;20534;-78
2021/11/29 07:13:32;;;;;;;10.70;4.00;;;0.20;99.90;;;0.88;100.00;97127.53;5036301;28;20444;-78
2021/11/29 07:16:00;;;;;;;6.10;4.23;;;0.30;99.90;;;0.89;100.00;97124.03;5035304;28;20448;-78
2021/11/29 07:18:31;;;;;;;7.07;4.00;;;0.30;99.90;;;0.92;100.00;97131.44;5039014;28;20483;-78
2021/11/29 07:21:00;;;;;;;8.43;4.40;;;0.40;99.90;;;0.93;100.00;97136.44;5037186;28;20494;-78
2021/11/29 07:23:29;;;;;;;9.57;3.97;;;0.40;99.90;;;0.97;100.00;97139.53;5034107;28;20485;-78
2021/11/29 07:25:57;;;;;;;4.53;3.30;;;0.50;99.90;;;0.94;100.00;97147.53;5034641;28;20929;-78
2021/11/29 07:28:26;;;;;;;4.63;3.50;;;0.50;99.90;;;0.94;100.00;97143.19;5040171;28;20484;-78
2021/11/29 07:30:55;;;;;;;11.50;3.93;;;0.40;99.90;;;0.97;100.00;97152.41;5036047;28;20449;-78
2021/11/29 07:33:23;;;;;;;4.40;3.43;;;0.40;99.90;;;1.00;100.00;97152.09;5041115;28;20782;-78
2021/11/29 07:35:54;;;;;;;5.77;3.63;;;0.50;99.90;;;0.99;100.00;97155.63;5034485;28;20501;-78
2021/11/29 07:38:22;;;;;;;11.83;3.63;;;0.40;99.90;;;1.01;100.00;97162.22;5038361;28;20586;-77
2021/11/29 07:40:51;;;;;;;5.83;4.07;;;0.40;99.90;;;0.98;100.00;97165.09;5044820;28;20533;-78
2021/11/29 07:43:20;;;;;;;7.43;4.00;;;0.40;99.90;;;0.95;100.00;97175.69;5039655;28;20493;-78
2021/11/29 07:45:48;;;;;;;4.03;3.53;;;0.30;99.90;;;0.99;100.00;97171.88;5041399;28;20508;-78
2021/11/29 07:48:18;;;;;;;7.93;3.97;;;0.40;99.90;;;1.03;100.00;97182.69;5044264;28;20461;-78
2021/11/29 07:50:47;;;;;;;7.33;4.17;;;0.50;99.90;;;0.99;100.00;97183.94;5047119;28;20453;-78
2021/11/29 07:53:17;;;;;;;10.53;3.53;;;0.50;99.90;;;1.03;100.00;97195.53;5041649;28;20464;-78
2021/11/29 07:55:45;;;;;;;11.43;4.53;;;0.40;99.90;;;1.02;100.00;97196.50;5037746;28;20504;-78
2021/11/29 07:58:16;;;;;;;5.63;4.23;;;0.40;99.90;;;1.06;100.00;97202.97;5042971;28;20452;-78
2021/11/29 08:00:45;;;;;;;4.63;3.70;;;0.40;99.90;;;1.10;100.00;97209.44;5033880;28;20468;-78
2021/11/29 08:03:14;;;;;;;6.23;3.90;;;0.50;99.90;;;1.16;100.00;97206.25;5038285;28;20561;-77
2021/11/29 08:05:44;;;;;;;4.17;3.40;;;0.50;99.90;;;1.19;100.00;97200.81;5041506;28;20950;-77
2021/11/29 08:08:14;;;;;;;5.53;3.40;;;0.60;99.90;;;1.23;100.00;97220.16;5036203;28;20453;-78
2021/11/29 08:10:44;;;;;;;4.77;3.67;;;0.70;99.90;;;1.26;100.00;97211.31;5038537;28;20451;-78
2021/11/29 08:13:13;;;;;;;8.03;3.40;;;0.70;99.90;;;1.28;100.00;97212.00;5032005;28;20499;-78
2021/11/29 08:15:42;;;;;;;5.87;3.00;;;0.70;99.90;;;1.28;100.00;97212.81;5044017;28;20504;-78
2021/11/29 08:18:12;;;;;;;5.33;3.73;;;0.70;99.90;;;1.35;100.00;97213.81;5042071;28;20455;-78
2021/11/29 08:20:41;;;;;;;7.67;3.67;;;0.80;99.90;;;1.39;100.00;97217.69;5041861;28;20449;-78
2021/11/29 08:23:10;;;;;;;5.30;3.43;;;0.80;99.90;;;1.45;100.00;97221.44;5036850;28;20481;-79
2021/11/29 08:25:41;;;;;;;4.40;2.90;;;0.90;99.90;;;1.47;100.00;97222.91;5041454;28;21167;-78
2021/11/29 08:28:12;;;;;;;7.60;3.90;;;0.90;99.90;;;1.55;100.00;97229.06;5046441;28;20446;-78
2021/11/29 08:30:42;;;;;;;7.67;3.53;;;1.00;99.90;;;1.54;100.00;97228.25;5042021;28;20498;-77
2021/11/29 08:33:13;;;;;;;5.63;3.97;;;1.00;99.90;;;1.56;100.00;97228.13;5044627;28;21433;-78
2021/11/29 08:35:42;;;;;;;10.03;3.60;;;1.00;99.90;;;1.63;100.00;97226.56;5041245;28;20448;-78
2021/11/29 08:38:11;;;;;;;4.50;3.57;;;1.10;99.90;;;1.67;100.00;97227.84;5043478;28;20450;-78
2021/11/29 08:40:41;;;;;;;4.90;3.63;;;1.20;99.90;;;1.67;100.00;97220.13;5044160;28;20921;-78
2021/11/29 08:43:16;;;;;;;7.47;3.10;;;1.10;99.90;;;1.72;100.00;97235.94;5047809;28;21129;-80
2021/11/29 08:45:48;;;;;;;4.03;3.10;;;1.10;99.90;;;1.77;100.00;97238.88;5040671;28;21093;-78
2021/11/29 08:48:18;;;;;;;5.53;3.50;;;1.20;99.90;;;1.75;100.00;97227.91;5046147;28;20534;-77
2021/11/29 08:50:52;;;;;;;3.30;2.80;;;1.30;99.90;;;1.78;100.00;97241.28;5032856;28;20498;-78
2021/11/29 08:53:24;;;;;;;4.13;3.37;;;1.30;99.90;;;1.83;100.00;97246.00;5045947;28;20462;-77
2021/11/29 08:55:55;;;;;;;5.40;3.43;;;1.30;99.90;;;1.86;100.00;97248.28;5047893;28;20448;-78
2021/11/29 08:58:26;;;;;;;7.07;3.77;;;1.40;99.90;;;1.89;100.00;97240.22;5044757;28;20769;-78
2021/11/29 09:00:57;;;;;;;4.33;3.23;;;1.40;99.90;;;1.92;100.00;97247.66;5042370;28;20455;-78
2021/11/29 09:03:27;;;;;;;5.30;3.70;;;1.30;99.90;;;1.93;100.00;97254.44;5044418;28;20965;-78
2021/11/29 09:05:58;;;;;;;5.97;3.40;;;1.50;99.90;;;1.94;100.00;97256.06;5045054;28;20459;-78
2021/11/29 09:08:31;;;;;;;5.30;3.27;;;1.40;99.90;;;1.95;100.00;97262.81;5031228;28;21009;-78
2021/11/29 09:11:00;;;;;;;5.30;3.67;;;1.40;99.90;;;1.98;100.00;97262.50;5034388;28;20519;-78
2021/11/29 09:13:46;;;;;;;8.27;3.87;;;1.40;99.90;;;2.01;100.00;97275.09;5041130;28;20851;-78
2021/11/29 09:16:18;;;;;;;10.43;3.50;;;1.40;99.90;;;2.04;100.00;97282.53;5041814;28;20474;-78
2021/11/29 09:18:48;;;;;;;8.23;3.30;;;1.50;99.90;;;2.05;100.00;97284.13;5037412;28;20442;-78
2021/11/29 09:21:23;;;;;;;4.90;2.87;;;1.50;99.90;;;2.08;100.00;97281.28;5042607;28;20458;-78
2021/11/29 09:23:52;;;;;;;4.23;2.83;;;1.60;99.90;;;2.10;100.00;97291.41;5032105;28;21061;-78
2021/11/29 09:26:20;;;;;;;4.50;3.20;;;1.60;99.90;;;2.10;100.00;97294.81;5044381;28;20522;-78
2021/11/29 09:28:51;;;;;;;6.70;3.37;;;1.50;99.90;;;2.14;100.00;97278.06;5045838;28;20447;-78
2021/11/29 09:31:20;;;;;;;5.50;3.00;;;1.60;99.90;;;2.21;100.00;97284.22;5045747;28;20577;-78
2021/11/29 09:33:49;;;;;;;4.00;3.03;;;1.60;99.90;;;2.24;100.00;97293.44;5039038;28;20528;-78
2021/11/29 09:36:18;;;;;;;6.33;3.03;;;1.80;99.90;;;2.28;100.00;97300.72;5043442;28;20507;-78
2021/11/29 09:38:48;;;;;;;5.40;3.30;;;1.80;99.90;;;2.31;100.00;97304.75;5043163;28;20440;-78
2021/11/29 09:41:19;;;;;;;4.40;2.90;;;1.80;99.90;;;2.35;100.00;97316.38;5042294;28;20869;-79
2021/11/29 09:43:49;;;;;;;6.40;2.90;;;1.80;99.90;;;2.36;100.00;97316.22;5039016;28;20454;-79
2021/11/29 09:46:18;;;;;;;5.03;2.57;;;1.80;99.90;;;2.39;100.00;97310.78;5045385;28;20534;-78
2021/11/29 09:48:47;;;;;;;4.93;3.07;;;1.80;99.90;;;2.41;100.00;97316.56;5040490;28;20449;-78
2021/11/29 09:51:35;;;;;;;8.60;2.93;;;1.80;99.90;;;2.45;100.00;97310.16;5045354;28;20531;-78
2021/11/29 09:54:05;;;;;;;9.53;2.93;;;2.00;99.90;;;2.48;100.00;97315.00;5046908;28;20457;-78
2021/11/29 09:56:34;;;;;;;7.00;3.10;;;2.00;99.90;;;2.52;100.00;97321.47;5044669;28;20453;-78
2021/11/29 09:59:05;;;;;;;9.90;3.00;;;2.00;99.90;;;2.53;100.00;97320.47;5046309;28;20922;-78
2021/11/29 10:01:34;;;;;;;8.50;3.20;;;2.00;99.90;;;2.56;100.00;97323.72;5039462;28;20501;-78
2021/11/29 10:04:05;;;;;;;6.47;3.20;;;2.00;99.90;;;2.58;100.00;97321.78;5042116;28;20524;-78
2021/11/29 10:06:35;;;;;;;5.47;3.10;;;2.00;99.90;;;2.61;100.00;97326.63;5042822;28;20559;-78
2021/11/29 10:09:29;;;;;;;5.13;2.97;;;2.20;99.90;;;2.62;100.00;97330.84;5040438;28;20517;-78
2021/11/29 10:12:22;;;;;;;9.93;2.93;;;2.20;99.90;;;2.70;100.00;97331.69;5036860;28;21019;-79
2021/11/29 10:15:18;;;;;;;4.57;2.87;;;2.20;99.90;;;2.72;100.00;97326.38;5036318;28;20446;-78
2021/11/29 10:17:49;;;;;;;7.23;3.37;;;2.20;99.90;;;2.72;100.00;97327.19;5031234;28;20520;-79
2021/11/29 10:20:57;;;;;;;5.53;3.10;;;2.20;99.90;;;2.66;100.00;97309.75;5032665;28;20546;-79
2021/11/29 10:23:35;;;;;;;8.57;3.30;;;2.10;99.90;;;2.67;100.00;97308.78;5032106;28;20472;-78
2021/11/29 10:26:09;;;;;;;3.53;2.77;;;2.20;99.90;;;2.69;100.00;97306.84;5042692;28;20543;-78
2021/11/29 10:28:42;;;;;;;5.93;3.10;;;2.20;99.90;;;2.71;100.00;97311.88;5046364;28;20546;-79
2021/11/29 10:31:31;;;;;;;4.80;2.90;;;2.20;99.90;;;2.70;100.00;97313.63;5044749;28;20493;-78
2021/11/29 10:34:05;;;;;;;3.90;3.00;;;2.10;99.90;;;2.76;100.00;97314.78;5038038;28;20448;-78
2021/11/29 10:36:38;;;;;;;4.83;3.13;;;2.30;99.90;;;2.83;100.00;97318.34;5045063;28;20972;-79
2021/11/29 10:39:11;;;;;;;8.40;3.07;;;2.20;99.90;;;2.83;100.00;97315.75;5044609;28;20444;-79